Time;durP1;ratioP1;P1;durP2;ratioP2;P2;SDS_P1;SDS_P2;PMS_P1;PMS_P2;Temp;Humidity;BMP_temperature;BMP_pressure;BME280_temperature;BME280_humidity;BME280_pressure;Samples;Min_cycle;Max_cycle;Signal;HPM_P1;HPM_P2
2023/07/20 00:01:35;;;;;;;4.43;1.42;;;;;;;14.53;100.00;98211.00;15262371;19;20018;-51
2023/07/20 00:07:03;;;;;;;4.05;1.60;;;;;;;14.41;100.00;98207.13;15288642;19;20038;-49
2023/07/20 00:12:27;;;;;;;4.00;1.60;;;;;;;14.35;100.00;98200.59;15281748;19;20006;-52
2023/07/20 00:17:52;;;;;;;5.18;1.40;;;;;;;14.31;100.00;98188.44;15284286;19;20040;-50
2023/07/20 00:23:22;;;;;;;4.72;1.30;;;;;;;14.24;100.00;98182.13;15287945;19;20085;-47
2023/07/20 00:28:47;;;;;;;3.03;1.50;;;;;;;14.10;100.00;98170.31;15287612;19;20046;-47
2023/07/20 00:34:11;;;;;;;2.25;1.30;;;;;;;14.03;100.00;98171.03;15280715;19;20467;-48
2023/07/20 00:39:40;;;;;;;3.50;1.50;;;;;;;13.96;100.00;98186.38;15279141;19;20017;-48
2023/07/20 00:45:04;;;;;;;2.45;1.40;;;;;;;13.91;100.00;98187.97;15283989;19;20015;-49
2023/07/20 00:50:37;;;;;;;4.53;1.52;;;;;;;13.83;100.00;98184.31;15279494;19;20018;-48
2023/07/20 00:56:07;;;;;;;4.95;1.38;;;;;;;13.81;100.00;98196.38;15284586;19;20010;-51
2023/07/20 01:01:31;;;;;;;4.32;1.48;;;;;;;13.78;100.00;98200.31;15278583;19;20049;-47
2023/07/20 01:07:03;;;;;;;2.80;1.30;;;;;;;13.77;100.00;98195.06;15280585;19;20007;-47
2023/07/20 01:12:36;;;;;;;3.03;1.33;;;;;;;13.75;100.00;98197.16;15277778;19;20018;-48
2023/07/20 01:18:04;;;;;;;2.97;1.30;;;;;;;13.72;100.00;98184.81;15280844;19;20020;-49
2023/07/20 01:23:49;;;;;;;6.68;1.73;;;;;;;13.66;100.00;98177.44;15282354;19;20014;-50
2023/07/20 01:29:45;;;;;;;3.28;1.50;;;;;;;13.59;100.00;98171.94;15279922;19;20047;-50
2023/07/20 01:35:15;;;;;;;1.67;1.00;;;;;;;13.56;100.00;98170.47;15278352;19;20014;-49
2023/07/20 01:40:42;;;;;;;3.30;1.40;;;;;;;13.51;100.00;98175.56;15276060;19;20261;-50
2023/07/20 01:46:08;;;;;;;1.85;1.10;;;;;;;13.47;100.00;98165.31;15281215;19;20010;-47
2023/07/20 01:51:43;;;;;;;2.08;1.20;;;;;;;13.44;100.00;98174.66;15273784;19;20023;-48
2023/07/20 01:57:08;;;;;;;6.50;1.90;;;;;;;13.42;100.00;98168.56;15281143;19;20663;-52
2023/07/20 02:02:36;;;;;;;4.47;1.70;;;;;;;13.36;100.00;98163.84;15273209;19;20090;-51
2023/07/20 02:08:04;;;;;;;4.25;1.80;;;;;;;13.25;100.00;98168.72;15275562;19;20026;-47
2023/07/20 02:13:29;;;;;;;2.90;1.75;;;;;;;13.20;100.00;98192.78;15277534;19;20010;-48
2023/07/20 02:18:56;;;;;;;4.88;2.38;;;;;;;13.18;100.00;98216.47;15275750;19;20022;-48
2023/07/20 02:24:24;;;;;;;5.70;2.03;;;;;;;13.19;100.00;98223.56;15278868;19;20014;-47
2023/07/20 02:29:50;;;;;;;3.80;1.90;;;;;;;13.19;100.00;98233.53;15272167;19;20457;-49
2023/07/20 02:35:15;;;;;;;2.90;1.65;;;;;;;13.17;100.00;98243.72;15277225;19;20054;-48
2023/07/20 02:40:43;;;;;;;3.78;2.20;;;;;;;13.11;100.00;98239.88;15270064;19;20022;-54
2023/07/20 02:46:07;;;;;;;5.28;2.55;;;;;;;13.07;100.00;98249.38;15276245;19;20472;-49
2023/07/20 02:51:38;;;;;;;4.70;2.40;;;;;;;13.07;100.00;98276.41;15273139;19;20022;-46
2023/07/20 02:57:07;;;;;;;5.68;3.10;;;;;;;13.09;100.00;98291.41;15277890;19;20002;-49
2023/07/20 03:02:30;;;;;;;6.22;2.60;;;;;;;13.12;100.00;98309.13;15268917;19;20069;-51
2023/07/20 03:07:58;;;;;;;5.50;2.30;;;;;;;13.17;100.00;98311.34;15272585;19;20015;-48
2023/07/20 03:13:26;;;;;;;5.10;2.20;;;;;;;13.21;100.00;98308.09;15269050;19;20011;-49
2023/07/20 03:18:51;;;;;;;2.13;1.70;;;;;;;13.26;100.00;98288.59;15273040;19;20022;-51
2023/07/20 03:24:17;;;;;;;3.58;1.88;;;;;;;13.29;100.00;98290.09;15274865;19;20057;-50
2023/07/20 03:29:45;;;;;;;3.42;2.10;;;;;;;13.33;100.00;98315.78;15271956;19;20086;-49
2023/07/20 03:35:11;;;;;;;3.83;2.10;;;;;;;13.35;100.00;98302.88;15272303;19;20046;-50
2023/07/20 03:40:43;;;;;;;5.00;1.92;;;;;;;13.37;100.00;98315.22;15269456;19;20018;-47
2023/07/20 03:46:10;;;;;;;5.13;2.30;;;;;;;13.40;100.00;98305.91;15268005;19;20011;-49
2023/07/20 03:51:42;;;;;;;5.28;2.47;;;;;;;13.47;100.00;98317.69;15270116;19;20022;-49
2023/07/20 03:57:09;;;;;;;7.35;2.55;;;;;;;13.53;100.00;98325.09;15272090;19;20362;-48
2023/07/20 04:02:37;;;;;;;4.50;2.17;;;;;;;13.59;100.00;98322.66;15265738;19;20014;-46
2023/07/20 04:08:01;;;;;;;6.82;2.10;;;;;;;13.65;100.00;98324.66;15273861;19;20108;-49
2023/07/20 04:13:26;;;;;;;6.65;2.40;;;;;;;13.72;100.00;98347.25;15269882;19;20031;-51
2023/07/20 04:18:53;;;;;;;4.97;2.45;;;;;;;13.77;100.00;98336.72;15267942;19;20006;-48
2023/07/20 04:24:19;;;;;;;4.82;2.30;;;;;;;13.85;100.00;98344.75;15272378;19;20006;-51
2023/07/20 04:29:43;;;;;;;6.13;2.70;;;;;;;13.92;100.00;98349.44;15266048;19;20038;-49
2023/07/20 04:35:15;;;;;;;5.57;2.83;;;;;;;13.93;100.00;98353.84;15273245;19;20086;-49
2023/07/20 04:40:39;;;;;;;5.13;2.40;;;;;;;13.97;100.00;98333.47;15267628;19;20014;-48
2023/07/20 04:46:05;;;;;;;5.95;2.30;;;;;;;14.02;100.00;98350.00;15269762;19;20251;-49
2023/07/20 04:51:40;;;;;;;4.13;2.15;;;;;;;14.11;100.00;98346.19;15271713;19;20011;-51
2023/07/20 04:57:04;;;;;;;5.07;2.08;;;;;;;14.21;100.00;98350.47;15285481;19;20627;-48
2023/07/20 05:02:32;;;;;;;4.07;2.17;;;;;;;14.29;100.00;98347.66;15277423;19;20037;-51
2023/07/20 05:07:59;;;;;;;6.15;1.90;;;;;;;14.35;100.00;98352.34;15285610;19;20097;-49
2023/07/20 05:13:25;;;;;;;3.83;2.00;;;;;;;14.41;100.00;98348.06;15282769;19;20093;-51
2023/07/20 05:18:49;;;;;;;5.30;2.10;;;;;;;14.50;100.00;98349.63;15282675;19;20047;-51
2023/07/20 05:24:17;;;;;;;4.22;2.00;;;;;;;14.58;100.00;98341.38;15278028;19;20022;-50
2023/07/20 05:29:46;;;;;;;4.43;2.22;;;;;;;14.72;100.00;98347.00;15280567;19;20021;-48
2023/07/20 05:35:12;;;;;;;4.05;1.90;;;;;;;14.85;100.00;98360.72;15284107;19;20572;-47
2023/07/20 05:40:40;;;;;;;4.20;2.00;;;;;;;15.03;100.00;98348.63;15278753;19;20018;-47
2023/07/20 05:46:06;;;;;;;3.30;1.90;;;;;;;15.14;100.00;98344.56;15283991;19;20351;-47
2023/07/20 05:51:38;;;;;;;3.60;1.90;;;;;;;15.22;100.00;98329.00;15277138;19;20023;-51
2023/07/20 05:57:05;;;;;;;4.65;1.80;;;;;;;15.36;100.00;98321.81;15279968;19;20036;-49
2023/07/20 06:02:30;;;;;;;2.30;1.50;;;;;;;15.57;100.00;98301.13;15275267;19;20011;-49
2023/07/20 06:07:55;;;;;;;2.35;1.55;;;;;;;15.72;100.00;98271.97;15282879;19;20024;-49
2023/07/20 06:13:23;;;;;;;5.35;1.98;;;;;;;15.88;100.00;98261.06;15280391;19;20349;-48
2023/07/20 06:18:48;;;;;;;2.05;1.52;;;;;;;15.98;100.00;98237.91;15277929;19;20025;-48
2023/07/20 06:24:13;;;;;;;3.20;1.58;;;;;;;16.06;100.00;98206.16;15278716;19;20039;-49
2023/07/20 06:29:41;;;;;;;2.80;1.40;;;;;;;16.12;100.00;98195.31;15273965;19;20018;-52
2023/07/20 06:35:06;;;;;;;2.30;1.33;;;;;;;16.19;100.00;98192.63;15279519;19;20018;-51
2023/07/20 06:40:31;;;;;;;1.80;1.33;;;;;;;16.26;100.00;98179.91;15277505;19;20661;-48
2023/07/20 06:46:04;;;;;;;3.08;1.50;;;;;;;16.35;100.00;98191.44;15280445;19;20010;-49
2023/07/20 06:51:35;;;;;;;4.03;1.40;;;;;;;16.32;100.00;98172.81;15263897;19;20412;-60
2023/07/20 06:56:59;;;;;;;1.90;1.60;;;;;;;16.27;100.00;98187.03;15275257;19;20018;-59
2023/07/20 07:02:30;;;;;;;2.35;1.58;;;;;;;16.38;100.00;98203.78;15272203;19;20029;-60
2023/07/20 07:07:54;;;;;;;3.45;1.42;;;;;;;16.47;100.00;98181.63;15275639;19;20037;-59
2023/07/20 07:13:19;;;;;;;2.22;1.25;;;;;;;16.55;100.00;98147.97;15271198;19;20022;-55
2023/07/20 07:18:46;;;;;;;2.10;1.13;;;;;;;16.66;100.00;98142.97;15279178;19;20015;-56
2023/07/20 07:24:17;;;;;;;1.75;1.10;;;;;;;16.72;100.00;98131.25;15278319;19;20023;-59
2023/07/20 07:30:03;;;;;;;2.75;1.30;;;;;;;16.82;100.00;98118.09;15273375;19;20010;-57
2023/07/20 07:35:31;;;;;;;1.98;1.17;;;;;;;16.92;100.00;98126.66;15277361;19;20082;-58
2023/07/20 07:40:57;;;;;;;3.85;1.15;;;;;;;17.06;100.00;98121.25;15274563;19;20021;-57
2023/07/20 07:46:22;;;;;;;4.07;1.20;;;;;;;17.20;100.00;98114.75;15276995;19;20363;-60
2023/07/20 07:51:57;;;;;;;5.53;1.17;;;;;;;17.38;100.00;98124.13;15268660;19;20015;-59
2023/07/20 07:57:21;;;;;;;4.32;1.10;;;;;;;17.38;100.00;98116.81;15275993;19;20035;-57
2023/07/20 08:02:46;;;;;;;3.70;1.05;;;;;;;17.53;100.00;98112.97;15262519;19;20011;-57
2023/07/20 08:08:14;;;;;;;6.15;1.20;;;;;;;17.66;100.00;98093.03;15276232;19;20085;-59
2023/07/20 08:13:41;;;;;;;3.35;1.02;;;;;;;17.84;100.00;98089.63;15274180;19;20039;-59
2023/07/20 08:19:06;;;;;;;2.78;0.82;;;;;;;17.94;100.00;98094.59;15274117;19;20840;-59
2023/07/20 08:24:34;;;;;;;2.70;1.13;;;;;;;18.08;100.00;98090.78;15280145;19;20018;-58
2023/07/20 08:29:58;;;;;;;4.93;1.00;;;;;;;18.29;100.00;98075.13;15284392;19;20415;-60
2023/07/20 08:35:23;;;;;;;4.32;0.90;;;;;;;18.74;100.00;98075.03;15284790;19;20022;-60
2023/07/20 08:40:51;;;;;;;4.10;0.90;;;;;;;18.64;100.00;98080.13;15285918;19;20450;-61
2023/07/20 08:46:15;;;;;;;2.33;0.90;;;;;;;18.59;100.00;98079.97;15287989;19;20352;-59
2023/07/20 08:51:48;;;;;;;1.30;0.70;;;;;;;18.36;100.00;98078.66;15281916;19;20022;-59
2023/07/20 08:57:17;;;;;;;1.67;0.70;;;;;;;18.39;100.00;98089.13;15289308;19;20024;-59
2023/07/20 09:02:48;;;;;;;1.90;1.00;;;;;;;18.37;100.00;98083.06;15282689;19;20049;-59
2023/07/20 09:08:12;;;;;;;1.13;0.70;;;;;;;18.31;100.00;98079.31;15284554;19;20427;-58
2023/07/20 09:13:42;;;;;;;1.45;0.80;;;;;;;18.52;100.00;98076.47;15284697;19;20024;-57
2023/07/20 09:19:08;;;;;;;2.25;0.93;;;;;;;18.55;100.00;98065.09;15286766;19;20017;-58
2023/07/20 09:24:38;;;;;;;1.30;0.77;;;;;;;18.58;100.00;98075.56;15287245;19;20383;-60
2023/07/20 09:30:07;;;;;;;3.03;0.70;;;;;;;18.38;100.00;98076.56;15282334;19;20027;-58
2023/07/20 09:35:35;;;;;;;8.70;1.02;;;;;;;18.31;100.00;98086.66;15286035;19;20015;-56
2023/07/20 09:41:00;;;;;;;6.82;1.08;;;;;;;18.26;100.00;98097.41;15277847;19;20015;-54
2023/07/20 09:46:56;;;;;;;2.90;0.90;;;;;;;18.42;100.00;98093.31;15281470;19;21255;-58
2023/07/20 09:52:31;;;;;;;2.05;0.80;;;;;;;18.76;100.00;98089.25;15279086;19;20090;-59
2023/07/20 09:57:59;;;;;;;1.83;0.80;;;;;;;19.24;100.00;98089.69;15283538;19;20558;-57
2023/07/20 10:03:28;;;;;;;1.63;0.75;;;;;;;19.41;100.00;98084.47;15275585;19;20014;-58
2023/07/20 10:08:58;;;;;;;1.52;0.80;;;;;;;19.19;100.00;98075.91;15283489;19;20016;-58
2023/07/20 10:14:28;;;;;;;7.15;0.75;;;;;;;18.71;100.00;98097.28;15277910;19;21132;-54
2023/07/20 10:19:59;;;;;;;15.07;1.40;;;;;;;17.70;100.00;98133.25;15279523;19;20375;-58
2023/07/20 10:25:26;;;;;;;4.32;1.20;;;;;;;17.27;100.00;98152.84;15281855;19;20025;-55
2023/07/20 10:30:51;;;;;;;2.75;1.40;;;;;;;17.01;100.00;98175.47;15274911;19;20015;-56
2023/07/20 10:36:19;;;;;;;5.78;1.70;;;;;;;16.87;100.00;98199.94;15282379;19;20015;-57
2023/07/20 10:41:46;;;;;;;3.72;1.73;;;;;;;16.78;100.00;98220.19;15276412;19;20022;-58
2023/07/20 10:47:13;;;;;;;7.03;1.52;;;;;;;16.27;100.00;98244.13;15275383;19;20045;-58
2023/07/20 10:52:50;;;;;;;2.55;1.60;;;;;;;15.93;100.00;98255.84;15274731;19;20024;-61
2023/07/20 10:58:17;;;;;;;1.98;1.60;;;;;;;15.81;100.00;98275.38;15280455;19;20019;-60
2023/07/20 11:03:44;;;;;;;1.40;1.20;;;;;;;15.76;100.00;98293.31;15272454;19;20026;-57
2023/07/20 11:09:16;;;;;;;1.23;1.13;;;;;;;15.74;100.00;98307.09;15278312;19;20406;-57
2023/07/20 11:14:42;;;;;;;3.50;1.20;;;;;;;15.67;100.00;98301.63;15275739;19;20035;-59
2023/07/20 11:20:08;;;;;;;2.42;0.50;;;;;;;15.50;100.00;98235.06;15272734;19;20025;-60
2023/07/20 11:25:46;;;;;;;0.90;0.75;;;;;;;15.44;100.00;98257.56;15276415;19;20019;-60
2023/07/20 11:31:12;;;;;;;1.05;0.60;;;;;;;15.54;100.00;98287.94;15272780;19;20484;-60
2023/07/20 11:36:37;;;;;;;1.05;0.50;;;;;;;15.86;100.00;98288.41;15277144;19;20660;-59
2023/07/20 11:42:08;;;;;;;0.20;0.20;;;;;;;16.08;100.00;98210.38;15271021;19;20021;-60
2023/07/20 11:47:53;;;;;;;0.80;0.40;;;;;;;16.32;100.00;98216.31;15272947;19;20026;-58
2023/07/20 11:53:25;;;;;;;0.45;0.30;;;;;;;16.54;100.00;98197.97;15269437;19;20061;-58
2023/07/20 11:58:52;;;;;;;0.47;0.30;;;;;;;16.75;100.00;98193.44;15276129;19;20019;-60
2023/07/20 12:04:17;;;;;;;2.88;0.30;;;;;;;17.20;100.00;98190.97;15271101;19;20097;-58
2023/07/20 12:09:43;;;;;;;1.08;0.43;;;;;;;17.59;100.00;98172.06;15274110;19;20022;-57
2023/07/20 12:15:30;;;;;;;0.40;0.38;;;;;;;17.71;100.00;98166.78;15275382;19;20016;-58
2023/07/20 12:21:01;;;;;;;0.63;0.38;;;;;;;17.70;100.00;98173.28;15267692;19;20085;-58
2023/07/20 12:26:26;;;;;;;0.35;0.20;;;;;;;17.83;100.00;98151.44;15274469;19;20624;-61
2023/07/20 12:31:53;;;;;;;0.63;0.30;;;;;;;17.72;100.00;98152.09;15265803;19;20032;-60
2023/07/20 12:37:19;;;;;;;0.20;0.20;;;;;;;17.74;100.00;98162.81;15274208;19;20574;-59
2023/07/20 12:42:45;;;;;;;1.65;0.30;;;;;;;17.68;100.00;98161.78;15268643;19;20043;-58
2023/07/20 12:48:13;;;;;;;0.95;0.20;;;;;;;17.83;100.00;98158.78;15274104;19;20021;-61
2023/07/20 12:53:45;;;;;;;0.20;0.20;;;;;;;18.04;100.00;98157.72;15263198;19;20023;-58
2023/07/20 12:59:10;;;;;;;0.20;0.20;;;;;;;18.38;100.00;98144.75;15273445;19;20035;-59
2023/07/20 13:04:37;;;;;;;0.60;0.20;;;;;;;18.63;100.00;98144.78;15266427;19;20814;-60
2023/07/20 13:10:02;;;;;;;0.32;0.20;;;;;;;18.69;100.00;98144.97;15271440;19;20080;-59
2023/07/20 13:15:27;;;;;;;0.43;0.10;;;;;;;18.94;100.00;98136.81;15281124;19;20013;-59
2023/07/20 13:20:55;;;;;;;0.10;0.10;;;;;;;18.90;100.00;98146.47;15281550;19;20047;-60
2023/07/20 13:26:19;;;;;;;0.40;0.20;;;;;;;18.90;100.00;98143.72;15282120;19;20010;-57
2023/07/20 13:31:44;;;;;;;0.20;0.20;;;;;;;18.91;100.00;98137.22;15279826;19;20073;-59
2023/07/20 13:37:11;;;;;;;0.75;0.20;;;;;;;19.12;100.00;98140.66;15283412;19;20011;-60
2023/07/20 13:42:36;;;;;;;0.20;0.20;;;;;;;19.15;100.00;98140.19;15278632;19;20014;-58
2023/07/20 13:48:00;;;;;;;0.20;0.20;;;;;;;19.45;100.00;98137.59;15284680;19;20015;-58
2023/07/20 13:53:28;;;;;;;0.13;0.10;;;;;;;19.60;100.00;98130.94;15273900;19;20490;-57
2023/07/20 13:58:56;;;;;;;0.20;0.20;;;;;;;19.77;100.00;98131.16;15278813;19;20082;-57
2023/07/20 14:04:26;;;;;;;0.65;0.20;;;;;;;20.04;100.00;98128.16;15278380;19;20024;-58
2023/07/20 14:09:53;;;;;;;0.20;0.20;;;;;;;20.14;100.00;98120.22;15281332;19;20757;-61
2023/07/20 14:15:22;;;;;;;0.50;0.10;;;;;;;20.19;100.00;98128.56;15280531;19;20059;-61
2023/07/20 14:20:47;;;;;;;1.38;0.15;;;;;;;20.31;100.00;98118.50;15276881;19;20083;-59
2023/07/20 14:26:16;;;;;;;0.22;0.15;;;;;;;20.52;100.00;98110.81;15279520;19;20013;-61
2023/07/20 14:31:41;;;;;;;0.25;0.10;;;;;;;20.67;100.00;98099.47;15272228;19;20006;-60
2023/07/20 14:37:06;;;;;;;1.85;0.30;;;;;;;20.52;100.00;98110.81;15280802;19;20012;-58
2023/07/20 14:42:35;;;;;;;0.63;0.20;;;;;;;20.29;100.00;98115.16;15273433;19;20034;-61
2023/07/20 14:48:01;;;;;;;2.35;0.30;;;;;;;20.08;100.00;98112.94;15281258;19;20050;-60
2023/07/20 14:53:28;;;;;;;0.30;0.20;;;;;;;20.14;100.00;98110.09;15273734;19;20010;-61
2023/07/20 14:58:57;;;;;;;0.60;0.20;;;;;;;20.07;100.00;98103.91;15277594;19;20351;-58
2023/07/20 15:04:23;;;;;;;0.43;0.10;;;;;;;20.11;100.00;98107.00;15273008;19;20758;-60
2023/07/20 15:09:49;;;;;;;0.20;0.20;;;;;;;20.09;100.00;98103.66;15278478;19;20020;-59
2023/07/20 15:15:18;;;;;;;0.30;0.17;;;;;;;20.28;100.00;98093.50;15279387;19;20018;-59
2023/07/20 15:20:43;;;;;;;1.70;0.20;;;;;;;20.30;100.00;98103.16;15275858;19;20015;-58
2023/07/20 15:26:07;;;;;;;0.68;0.20;;;;;;;20.55;100.00;98099.41;15278073;19;20475;-59
2023/07/20 15:31:36;;;;;;;0.10;0.10;;;;;;;20.46;100.00;98098.09;15274094;19;20090;-61
2023/07/20 15:37:05;;;;;;;0.20;0.20;;;;;;;20.45;100.00;98090.94;15274246;19;20046;-59
2023/07/20 15:42:30;;;;;;;0.45;0.10;;;;;;;20.24;100.00;98093.16;15273414;19;20029;-61
2023/07/20 15:47:58;;;;;;;0.25;0.10;;;;;;;20.01;100.00;98083.78;15277258;19;20015;-60
2023/07/20 15:53:23;;;;;;;0.20;0.20;;;;;;;20.04;100.00;98089.88;15269991;19;20026;-57
2023/07/20 15:58:47;;;;;;;0.30;0.10;;;;;;;20.14;100.00;98088.22;15276443;19;20020;-59
2023/07/20 16:04:16;;;;;;;0.30;0.17;;;;;;;20.19;100.00;98078.50;15269071;19;20027;-56
2023/07/20 16:09:40;;;;;;;0.30;0.20;;;;;;;20.26;100.00;98084.69;15272860;19;20347;-54
2023/07/20 16:15:07;;;;;;;0.10;0.10;;;;;;;20.31;100.00;98079.38;15273340;19;20017;-59
2023/07/20 16:20:34;;;;;;;0.10;0.10;;;;;;;20.21;100.00;98088.13;15269924;19;20081;-59
2023/07/20 16:25:59;;;;;;;0.30;0.20;;;;;;;20.01;100.00;98083.78;15275019;19;20435;-59
2023/07/20 16:31:25;;;;;;;0.50;0.10;;;;;;;19.96;100.00;98080.09;15271318;19;20020;-60
2023/07/20 16:36:53;;;;;;;0.20;0.10;;;;;;;19.82;100.00;98082.94;15271424;19;20053;-59
2023/07/20 16:42:17;;;;;;;0.20;0.20;;;;;;;19.67;100.00;98086.09;15267923;19;20014;-58
2023/07/20 16:47:45;;;;;;;0.20;0.20;;;;;;;19.54;100.00;98076.13;15283137;19;20408;-58
2023/07/20 16:59:25;;;;;;;0.40;0.20;;;;;;;19.33;100.00;98066.50;15281048;19;20006;-55
2023/07/20 17:05:04;;;;;;;0.32;0.20;;;;;;;19.30;100.00;98060.63;15276294;19;20014;-57
2023/07/20 17:10:30;;;;;;;0.20;0.20;;;;;;;19.26;100.00;98060.25;15279105;19;20378;-58
2023/07/20 17:15:59;;;;;;;0.45;0.10;;;;;;;19.26;100.00;98060.25;15285700;19;20014;-56
2023/07/20 17:21:24;;;;;;;0.50;0.20;;;;;;;19.20;100.00;98053.00;15281067;19;20017;-58
2023/07/20 17:26:48;;;;;;;0.20;0.10;;;;;;;19.19;100.00;98054.88;15286747;19;20024;-57
2023/07/20 17:32:18;;;;;;;0.47;0.10;;;;;;;19.17;100.00;98057.00;15278388;19;20015;-60
2023/07/20 17:37:49;;;;;;;0.93;0.20;;;;;;;19.21;100.00;98046.47;15286077;19;20041;-57
2023/07/20 17:43:24;;;;;;;0.40;0.10;;;;;;;19.52;100.00;98047.38;15271934;19;20081;-54
2023/07/20 17:48:51;;;;;;;0.43;0.20;;;;;;;19.84;100.00;98058.97;15285309;19;20007;-57
2023/07/20 17:54:22;;;;;;;0.40;0.20;;;;;;;20.08;100.00;98050.03;15279213;19;20070;-58
2023/07/20 17:59:47;;;;;;;0.22;0.20;;;;;;;20.23;100.00;98041.41;15280654;19;20021;-59
2023/07/20 18:05:18;;;;;;;1.88;0.20;;;;;;;20.04;100.00;98043.38;15277961;19;20102;-58
2023/07/20 18:10:44;;;;;;;0.50;0.20;;;;;;;19.84;100.00;98048.03;15277301;19;20015;-57
2023/07/20 18:16:08;;;;;;;1.23;0.20;;;;;;;19.61;100.00;98042.44;15280556;19;20023;-57
2023/07/20 18:21:35;;;;;;;2.40;0.22;;;;;;;19.32;100.00;98042.13;15275255;19;20017;-57
2023/07/20 18:27:00;;;;;;;3.95;0.32;;;;;;;19.22;100.00;98027.13;15280905;19;20467;-59
2023/07/20 18:32:25;;;;;;;0.38;0.20;;;;;;;19.12;100.00;98025.97;15274440;19;20013;-55
2023/07/20 18:37:53;;;;;;;0.30;0.30;;;;;;;19.14;100.00;98034.78;15277795;19;20024;-55
2023/07/20 18:43:19;;;;;;;2.05;0.20;;;;;;;19.00;100.00;98028.63;15274548;19;20062;-58
2023/07/20 18:48:44;;;;;;;0.70;0.20;;;;;;;18.89;100.00;98025.53;15274796;19;20102;-59
2023/07/20 18:54:19;;;;;;;0.40;0.30;;;;;;;18.82;100.00;98034.84;15273791;19;20054;-60
2023/07/20 18:59:45;;;;;;;0.80;0.20;;;;;;;18.72;100.00;98036.19;15276981;19;20006;-59
2023/07/20 19:05:10;;;;;;;0.47;0.30;;;;;;;18.58;100.00;98042.81;15274524;19;20015;-59
2023/07/20 19:10:44;;;;;;;0.22;0.20;;;;;;;18.39;100.00;98045.50;15273417;19;20357;-58
2023/07/20 19:16:13;;;;;;;0.90;0.30;;;;;;;18.25;100.00;98060.28;15278038;19;20015;-58
2023/07/20 19:21:37;;;;;;;0.30;0.30;;;;;;;18.14;100.00;98065.38;15267383;19;20486;-57
2023/07/20 19:27:06;;;;;;;0.30;0.22;;;;;;;18.05;100.00;98055.78;15278346;19;20022;-58
2023/07/20 19:32:30;;;;;;;0.73;0.40;;;;;;;17.97;100.00;98067.78;15269830;19;20021;-57
2023/07/20 19:37:55;;;;;;;0.40;0.30;;;;;;;17.88;100.00;98074.50;15253130;19;20584;-58
2023/07/20 19:43:22;;;;;;;0.63;0.32;;;;;;;17.78;100.00;98074.97;15270920;19;20413;-58
2023/07/20 19:48:48;;;;;;;0.30;0.20;;;;;;;17.70;100.00;98080.66;15275053;19;20485;-60
2023/07/20 19:54:19;;;;;;;0.20;0.20;;;;;;;17.60;100.00;98089.28;15267897;19;20350;-59
2023/07/20 19:59:51;;;;;;;0.50;0.28;;;;;;;17.52;100.00;98084.91;15271673;19;20507;-58
2023/07/20 20:05:20;;;;;;;0.68;0.20;;;;;;;17.45;100.00;98084.13;15269916;19;20407;-57
2023/07/20 20:10:45;;;;;;;0.98;0.20;;;;;;;17.38;100.00;98088.72;15270261;19;20010;-56
2023/07/20 20:16:33;;;;;;;0.55;0.20;;;;;;;17.30;100.00;98089.78;15274194;19;20526;-59
2023/07/20 20:22:00;;;;;;;1.52;0.30;;;;;;;17.21;100.00;98091.91;15276987;19;20018;-56
2023/07/20 20:27:24;;;;;;;0.60;0.30;;;;;;;17.12;100.00;98093.16;15290323;19;20019;-57
2023/07/20 20:32:52;;;;;;;1.73;0.30;;;;;;;17.00;100.00;98092.13;15279710;19;20058;-56
2023/07/20 20:38:17;;;;;;;0.40;0.30;;;;;;;16.89;100.00;98088.97;15286395;19;20023;-59
2023/07/20 20:43:43;;;;;;;2.72;0.40;;;;;;;16.78;100.00;98095.06;15280868;19;20578;-58
2023/07/20 20:49:10;;;;;;;0.30;0.20;;;;;;;16.69;100.00;98090.88;15286628;19;20042;-56
2023/07/20 20:54:42;;;;;;;0.20;0.20;;;;;;;16.57;100.00;98086.06;15277993;19;20026;-51
2023/07/20 21:00:09;;;;;;;0.20;0.20;;;;;;;16.48;100.00;98092.75;15284872;19;20025;-58
2023/07/20 21:05:37;;;;;;;0.20;0.10;;;;;;;16.36;100.00;98095.22;15280438;19;20029;-58
2023/07/20 21:11:02;;;;;;;1.90;0.20;;;;;;;16.28;100.00;98084.56;15278512;19;20404;-57
2023/07/20 21:16:26;;;;;;;1.27;0.20;;;;;;;16.20;100.00;98087.47;15285227;19;20017;-56
2023/07/20 21:21:55;;;;;;;0.28;0.28;;;;;;;16.10;100.00;98083.28;15279490;19;20018;-57
2023/07/20 21:27:19;;;;;;;0.30;0.30;;;;;;;16.06;100.00;98084.72;15275934;19;20021;-57
2023/07/20 21:32:45;;;;;;;0.70;0.40;;;;;;;16.02;100.00;98092.47;15277635;19;20006;-58
2023/07/20 21:38:13;;;;;;;0.20;0.20;;;;;;;15.96;100.00;98093.25;15287535;19;20013;-58
2023/07/20 21:43:38;;;;;;;0.38;0.38;;;;;;;15.93;100.00;98093.69;15280452;19;20026;-58
2023/07/20 21:49:03;;;;;;;0.98;0.28;;;;;;;15.87;100.00;98099.94;15284717;19;20015;-55
2023/07/20 21:54:37;;;;;;;0.50;0.30;;;;;;;15.82;100.00;98091.50;15278773;19;20025;-56
2023/07/20 22:00:03;;;;;;;0.35;0.28;;;;;;;15.77;100.00;98083.97;15276230;19;20010;-55
2023/07/20 22:05:28;;;;;;;0.55;0.32;;;;;;;15.74;100.00;98083.53;15278593;19;20491;-58
2023/07/20 22:10:56;;;;;;;0.32;0.28;;;;;;;15.67;100.00;98095.22;15280225;19;20018;-55
2023/07/20 22:16:20;;;;;;;0.25;0.25;;;;;;;15.62;100.00;98089.56;15280077;19;20024;-55
2023/07/20 22:21:45;;;;;;;0.28;0.28;;;;;;;15.57;100.00;98083.91;15278577;19;20022;-53
2023/07/20 22:27:13;;;;;;;0.38;0.30;;;;;;;15.54;100.00;98097.88;15276693;19;20025;-58
2023/07/20 22:32:40;;;;;;;0.55;0.28;;;;;;;15.45;100.00;98080.91;15272706;19;20018;-57
2023/07/20 22:38:04;;;;;;;0.28;0.28;;;;;;;15.39;100.00;98082.56;15279940;19;20082;-54
2023/07/20 22:43:32;;;;;;;0.30;0.22;;;;;;;15.33;100.00;98094.22;15270776;19;20028;-57
2023/07/20 22:48:56;;;;;;;1.55;0.30;;;;;;;15.27;100.00;98078.72;15279487;19;20018;-56
2023/07/20 22:54:21;;;;;;;0.20;0.20;;;;;;;15.19;100.00;98077.00;15277057;19;20021;-57
2023/07/20 22:59:48;;;;;;;0.55;0.32;;;;;;;15.12;100.00;98080.72;15278084;19;20017;-56
2023/07/20 23:05:15;;;;;;;0.20;0.20;;;;;;;15.04;100.00;98074.41;15273148;19;20019;-53
2023/07/20 23:10:40;;;;;;;0.35;0.20;;;;;;;14.96;100.00;98071.88;15275934;19;20018;-55
2023/07/20 23:16:08;;;;;;;0.75;0.30;;;;;;;14.89;100.00;98070.97;15277621;19;20078;-56
2023/07/20 23:21:48;;;;;;;0.52;0.32;;;;;;;14.82;100.00;98064.66;15341896;19;20077;-57
2023/07/20 23:27:13;;;;;;;0.20;0.20;;;;;;;14.75;100.00;98075.47;15346412;19;20015;-55
2023/07/20 23:32:38;;;;;;;1.70;0.35;;;;;;;14.68;100.00;98071.88;15342880;19;20027;-58
2023/07/20 23:38:07;;;;;;;0.30;0.30;;;;;;;14.61;100.00;98060.94;15343877;19;20013;-58
2023/07/20 23:43:32;;;;;;;0.47;0.30;;;;;;;14.52;100.00;98064.84;15341152;19;20419;-57
2023/07/20 23:49:00;;;;;;;1.67;0.30;;;;;;;14.27;100.00;98057.09;15350393;19;20018;-57
2023/07/20 23:54:27;;;;;;;0.30;0.30;;;;;;;14.11;100.00;98061.75;15346573;19;20469;-58
2023/07/20 23:59:52;;;;;;;0.40;0.40;;;;;;;14.00;100.00;98067.66;15344221;19;20018;-57
